sensor_id;sensor_type;location;lat;lon;timestamp;P1;durP1;ratioP1;P2;durP2;ratioP2
11427;SDS011;5770;44.504;11.346;2023-06-01T00:02:11;6.38;;;4.70;;
11427;SDS011;5770;44.504;11.346;2023-06-01T00:04:39;8.20;;;5.35;;
11427;SDS011;5770;44.504;11.346;2023-06-01T00:07:06;5.53;;;4.93;;
11427;SDS011;5770;44.504;11.346;2023-06-01T00:09:34;8.63;;;5.32;;
11427;SDS011;5770;44.504;11.346;2023-06-01T00:12:02;8.68;;;5.60;;
11427;SDS011;5770;44.504;11.346;2023-06-01T00:14:30;7.40;;;5.75;;
11427;SDS011;5770;44.504;11.346;2023-06-01T00:16:57;10.82;;;5.60;;
11427;SDS011;5770;44.504;11.346;2023-06-01T00:19:25;8.02;;;5.18;;
11427;SDS011;5770;44.504;11.346;2023-06-01T00:21:52;6.45;;;5.63;;
11427;SDS011;5770;44.504;11.346;2023-06-01T00:24:20;8.27;;;5.40;;
11427;SDS011;5770;44.504;11.346;2023-06-01T00:26:47;8.32;;;5.20;;
11427;SDS011;5770;44.504;11.346;2023-06-01T00:29:16;11.02;;;5.50;;
11427;SDS011;5770;44.504;11.346;2023-06-01T00:31:43;7.63;;;5.15;;
11427;SDS011;5770;44.504;11.346;2023-06-01T00:34:10;6.07;;;5.47;;
11427;SDS011;5770;44.504;11.346;2023-06-01T00:36:37;5.55;;;4.95;;
11427;SDS011;5770;44.504;11.346;2023-06-01T00:39:04;7.40;;;5.93;;
11427;SDS011;5770;44.504;11.346;2023-06-01T00:41:32;6.25;;;5.30;;
11427;SDS011;5770;44.504;11.346;2023-06-01T00:43:59;7.50;;;5.82;;
11427;SDS011;5770;44.504;11.346;2023-06-01T00:46:28;6.78;;;5.18;;
11427;SDS011;5770;44.504;11.346;2023-06-01T00:48:57;6.57;;;5.18;;
11427;SDS011;5770;44.504;11.346;2023-06-01T00:51:24;8.13;;;5.60;;
11427;SDS011;5770;44.504;11.346;2023-06-01T00:53:52;7.45;;;5.03;;
11427;SDS011;5770;44.504;11.346;2023-06-01T00:56:19;9.18;;;4.80;;
11427;SDS011;5770;44.504;11.346;2023-06-01T00:58:47;6.93;;;5.60;;
11427;SDS011;5770;44.504;11.346;2023-06-01T01:01:14;5.47;;;4.97;;
11427;SDS011;5770;44.504;11.346;2023-06-01T01:03:47;6.25;;;5.38;;
11427;SDS011;5770;44.504;11.346;2023-06-01T01:06:24;6.93;;;5.32;;
11427;SDS011;5770;44.504;11.346;2023-06-01T01:09:01;7.70;;;5.28;;
11427;SDS011;5770;44.504;11.346;2023-06-01T01:11:37;8.88;;;5.55;;
11427;SDS011;5770;44.504;11.346;2023-06-01T01:14:08;8.70;;;5.30;;
11427;SDS011;5770;44.504;11.346;2023-06-01T01:16:43;7.28;;;5.65;;
11427;SDS011;5770;44.504;11.346;2023-06-01T01:19:21;8.82;;;5.65;;
11427;SDS011;5770;44.504;11.346;2023-06-01T01:22:05;6.93;;;5.07;;
11427;SDS011;5770;44.504;11.346;2023-06-01T01:24:35;7.80;;;5.45;;
11427;SDS011;5770;44.504;11.346;2023-06-01T01:27:14;7.50;;;5.07;;
11427;SDS011;5770;44.504;11.346;2023-06-01T01:29:43;7.72;;;5.18;;
11427;SDS011;5770;44.504;11.346;2023-06-01T01:32:12;6.43;;;5.05;;
11427;SDS011;5770;44.504;11.346;2023-06-01T01:34:39;8.45;;;5.70;;
11427;SDS011;5770;44.504;11.346;2023-06-01T01:37:09;5.53;;;4.72;;
11427;SDS011;5770;44.504;11.346;2023-06-01T01:39:36;7.72;;;5.18;;
11427;SDS011;5770;44.504;11.346;2023-06-01T01:42:04;6.70;;;5.38;;
11427;SDS011;5770;44.504;11.346;2023-06-01T01:44:31;6.30;;;5.00;;
11427;SDS011;5770;44.504;11.346;2023-06-01T01:47:02;6.95;;;5.53;;
11427;SDS011;5770;44.504;11.346;2023-06-01T01:49:40;5.53;;;4.88;;
11427;SDS011;5770;44.504;11.346;2023-06-01T01:52:10;8.27;;;5.53;;
11427;SDS011;5770;44.504;11.346;2023-06-01T01:54:42;10.05;;;5.80;;
11427;SDS011;5770;44.504;11.346;2023-06-01T01:57:09;6.13;;;5.53;;
11427;SDS011;5770;44.504;11.346;2023-06-01T01:59:38;7.25;;;5.57;;
11427;SDS011;5770;44.504;11.346;2023-06-01T02:02:08;5.90;;;5.25;;
11427;SDS011;5770;44.504;11.346;2023-06-01T02:04:37;6.80;;;5.45;;
11427;SDS011;5770;44.504;11.346;2023-06-01T02:07:05;8.20;;;5.80;;
11427;SDS011;5770;44.504;11.346;2023-06-01T02:09:33;7.95;;;6.18;;
11427;SDS011;5770;44.504;11.346;2023-06-01T02:12:00;7.72;;;6.28;;
11427;SDS011;5770;44.504;11.346;2023-06-01T02:14:27;7.57;;;5.72;;
11427;SDS011;5770;44.504;11.346;2023-06-01T02:16:55;6.13;;;5.47;;
11427;SDS011;5770;44.504;11.346;2023-06-01T02:19:24;8.18;;;6.00;;
11427;SDS011;5770;44.504;11.346;2023-06-01T02:21:51;7.28;;;6.28;;
11427;SDS011;5770;44.504;11.346;2023-06-01T02:24:18;7.00;;;6.30;;
11427;SDS011;5770;44.504;11.346;2023-06-01T02:26:45;6.97;;;5.60;;
11427;SDS011;5770;44.504;11.346;2023-06-01T02:29:17;7.38;;;6.50;;
11427;SDS011;5770;44.504;11.346;2023-06-01T02:31:47;6.57;;;5.88;;
11427;SDS011;5770;44.504;11.346;2023-06-01T02:34:14;8.27;;;6.28;;
11427;SDS011;5770;44.504;11.346;2023-06-01T02:36:43;7.40;;;6.38;;
11427;SDS011;5770;44.504;11.346;2023-06-01T02:39:10;6.50;;;5.88;;
11427;SDS011;5770;44.504;11.346;2023-06-01T02:41:37;7.25;;;6.20;;
11427;SDS011;5770;44.504;11.346;2023-06-01T02:44:04;10.20;;;6.07;;
11427;SDS011;5770;44.504;11.346;2023-06-01T02:46:31;8.98;;;5.80;;
11427;SDS011;5770;44.504;11.346;2023-06-01T02:48:58;10.82;;;5.90;;
11427;SDS011;5770;44.504;11.346;2023-06-01T02:51:25;7.50;;;5.90;;
11427;SDS011;5770;44.504;11.346;2023-06-01T02:53:54;10.48;;;6.22;;
11427;SDS011;5770;44.504;11.346;2023-06-01T02:56:21;14.10;;;6.55;;
11427;SDS011;5770;44.504;11.346;2023-06-01T02:58:48;7.80;;;5.60;;
11427;SDS011;5770;44.504;11.346;2023-06-01T03:01:15;7.75;;;6.45;;
11427;SDS011;5770;44.504;11.346;2023-06-01T03:03:42;9.35;;;6.20;;
11427;SDS011;5770;44.504;11.346;2023-06-01T03:06:09;11.07;;;6.00;;
11427;SDS011;5770;44.504;11.346;2023-06-01T03:08:38;11.65;;;6.30;;
11427;SDS011;5770;44.504;11.346;2023-06-01T03:11:06;7.53;;;5.97;;
11427;SDS011;5770;44.504;11.346;2023-06-01T03:13:34;7.75;;;5.90;;
11427;SDS011;5770;44.504;11.346;2023-06-01T03:16:01;9.60;;;6.20;;
11427;SDS011;5770;44.504;11.346;2023-06-01T03:18:28;9.25;;;5.97;;
11427;SDS011;5770;44.504;11.346;2023-06-01T03:20:55;7.88;;;6.10;;
11427;SDS011;5770;44.504;11.346;2023-06-01T03:23:22;8.90;;;5.95;;
11427;SDS011;5770;44.504;11.346;2023-06-01T03:25:49;8.98;;;5.97;;
11427;SDS011;5770;44.504;11.346;2023-06-01T03:28:17;7.15;;;6.22;;
11427;SDS011;5770;44.504;11.346;2023-06-01T03:30:45;7.65;;;6.30;;
11427;SDS011;5770;44.504;11.346;2023-06-01T03:33:12;8.05;;;6.65;;
11427;SDS011;5770;44.504;11.346;2023-06-01T03:35:39;7.35;;;6.50;;
11427;SDS011;5770;44.504;11.346;2023-06-01T03:38:06;9.20;;;6.07;;
11427;SDS011;5770;44.504;11.346;2023-06-01T03:43:10;6.65;;;6.03;;
11427;SDS011;5770;44.504;11.346;2023-06-01T03:45:39;8.73;;;6.43;;
11427;SDS011;5770;44.504;11.346;2023-06-01T03:48:06;9.43;;;5.85;;
11427;SDS011;5770;44.504;11.346;2023-06-01T03:50:33;11.68;;;6.40;;
11427;SDS011;5770;44.504;11.346;2023-06-01T03:53:01;6.93;;;5.85;;
11427;SDS011;5770;44.504;11.346;2023-06-01T03:55:29;6.80;;;5.88;;
11427;SDS011;5770;44.504;11.346;2023-06-01T03:57:57;8.48;;;6.10;;
11427;SDS011;5770;44.504;11.346;2023-06-01T04:00:25;7.28;;;5.55;;
11427;SDS011;5770;44.504;11.346;2023-06-01T04:02:54;7.63;;;6.10;;
11427;SDS011;5770;44.504;11.346;2023-06-01T04:05:22;7.40;;;5.78;;
11427;SDS011;5770;44.504;11.346;2023-06-01T04:07:51;12.80;;;6.30;;
11427;SDS011;5770;44.504;11.346;2023-06-01T04:10:19;8.45;;;5.95;;
11427;SDS011;5770;44.504;11.346;2023-06-01T04:12:47;9.18;;;6.07;;
11427;SDS011;5770;44.504;11.346;2023-06-01T04:15:15;8.98;;;6.13;;
11427;SDS011;5770;44.504;11.346;2023-06-01T04:17:43;11.60;;;6.00;;
11427;SDS011;5770;44.504;11.346;2023-06-01T04:20:12;6.13;;;5.18;;
11427;SDS011;5770;44.504;11.346;2023-06-01T04:22:40;6.78;;;5.70;;
11427;SDS011;5770;44.504;11.346;2023-06-01T04:25:09;10.77;;;6.20;;
11427;SDS011;5770;44.504;11.346;2023-06-01T04:27:41;6.88;;;6.03;;
11427;SDS011;5770;44.504;11.346;2023-06-01T04:30:10;8.32;;;6.32;;
11427;SDS011;5770;44.504;11.346;2023-06-01T04:32:37;7.75;;;5.93;;
11427;SDS011;5770;44.504;11.346;2023-06-01T04:35:05;7.78;;;5.65;;
11427;SDS011;5770;44.504;11.346;2023-06-01T04:37:34;7.00;;;6.22;;
11427;SDS011;5770;44.504;11.346;2023-06-01T04:40:03;8.65;;;6.10;;
11427;SDS011;5770;44.504;11.346;2023-06-01T04:42:33;9.27;;;6.60;;
11427;SDS011;5770;44.504;11.346;2023-06-01T04:45:00;9.18;;;6.25;;
11427;SDS011;5770;44.504;11.346;2023-06-01T04:47:29;8.15;;;5.70;;
11427;SDS011;5770;44.504;11.346;2023-06-01T04:49:56;7.45;;;6.15;;
11427;SDS011;5770;44.504;11.346;2023-06-01T04:52:24;8.35;;;6.53;;
11427;SDS011;5770;44.504;11.346;2023-06-01T04:54:52;8.55;;;5.80;;
11427;SDS011;5770;44.504;11.346;2023-06-01T04:57:19;7.22;;;5.93;;
11427;SDS011;5770;44.504;11.346;2023-06-01T04:59:48;8.82;;;5.97;;
11427;SDS011;5770;44.504;11.346;2023-06-01T05:02:16;8.32;;;6.00;;
11427;SDS011;5770;44.504;11.346;2023-06-01T05:04:43;10.25;;;5.78;;
11427;SDS011;5770;44.504;11.346;2023-06-01T05:07:11;6.00;;;5.38;;
11427;SDS011;5770;44.504;11.346;2023-06-01T05:09:38;7.47;;;6.32;;
11427;SDS011;5770;44.504;11.346;2023-06-01T05:12:07;6.57;;;5.50;;
11427;SDS011;5770;44.504;11.346;2023-06-01T05:14:34;7.53;;;5.75;;
11427;SDS011;5770;44.504;11.346;2023-06-01T05:17:01;8.43;;;5.55;;
11427;SDS011;5770;44.504;11.346;2023-06-01T05:19:28;8.70;;;5.75;;
11427;SDS011;5770;44.504;11.346;2023-06-01T05:21:56;10.15;;;6.30;;
11427;SDS011;5770;44.504;11.346;2023-06-01T05:24:23;6.60;;;5.63;;
11427;SDS011;5770;44.504;11.346;2023-06-01T05:26:50;10.30;;;5.80;;
11427;SDS011;5770;44.504;11.346;2023-06-01T05:29:19;5.88;;;5.28;;
11427;SDS011;5770;44.504;11.346;2023-06-01T05:31:46;8.57;;;6.18;;
11427;SDS011;5770;44.504;11.346;2023-06-01T05:34:13;7.28;;;5.35;;
11427;SDS011;5770;44.504;11.346;2023-06-01T05:36:41;7.30;;;5.30;;
11427;SDS011;5770;44.504;11.346;2023-06-01T05:39:08;7.82;;;5.50;;
11427;SDS011;5770;44.504;11.346;2023-06-01T05:41:36;7.70;;;5.93;;
11427;SDS011;5770;44.504;11.346;2023-06-01T05:44:03;10.57;;;6.00;;
11427;SDS011;5770;44.504;11.346;2023-06-01T05:46:32;6.55;;;5.70;;
11427;SDS011;5770;44.504;11.346;2023-06-01T05:49:01;10.32;;;6.53;;
11427;SDS011;5770;44.504;11.346;2023-06-01T05:51:32;8.75;;;6.07;;
11427;SDS011;5770;44.504;11.346;2023-06-01T05:54:02;7.80;;;5.90;;
11427;SDS011;5770;44.504;11.346;2023-06-01T05:56:29;9.82;;;5.63;;
11427;SDS011;5770;44.504;11.346;2023-06-01T05:58:57;9.55;;;5.80;;
11427;SDS011;5770;44.504;11.346;2023-06-01T06:01:24;9.07;;;6.03;;
11427;SDS011;5770;44.504;11.346;2023-06-01T06:03:54;9.77;;;5.80;;
11427;SDS011;5770;44.504;11.346;2023-06-01T06:06:21;7.88;;;5.90;;
11427;SDS011;5770;44.504;11.346;2023-06-01T06:08:48;8.48;;;6.35;;
11427;SDS011;5770;44.504;11.346;2023-06-01T06:11:15;11.07;;;5.90;;
11427;SDS011;5770;44.504;11.346;2023-06-01T06:13:42;10.48;;;7.40;;
11427;SDS011;5770;44.504;11.346;2023-06-01T06:16:10;9.43;;;6.45;;
11427;SDS011;5770;44.504;11.346;2023-06-01T06:18:37;15.52;;;6.95;;
11427;SDS011;5770;44.504;11.346;2023-06-01T06:21:05;9.02;;;7.15;;
11427;SDS011;5770;44.504;11.346;2023-06-01T06:23:33;10.02;;;6.93;;
11427;SDS011;5770;44.504;11.346;2023-06-01T06:26:00;9.30;;;6.80;;
11427;SDS011;5770;44.504;11.346;2023-06-01T06:28:27;8.80;;;6.50;;
11427;SDS011;5770;44.504;11.346;2023-06-01T06:30:54;8.02;;;6.53;;
11427;SDS011;5770;44.504;11.346;2023-06-01T06:33:22;9.43;;;6.28;;
11427;SDS011;5770;44.504;11.346;2023-06-01T06:35:49;7.28;;;6.07;;
11427;SDS011;5770;44.504;11.346;2023-06-01T06:38:17;7.13;;;5.90;;
11427;SDS011;5770;44.504;11.346;2023-06-01T06:40:44;10.60;;;6.40;;
11427;SDS011;5770;44.504;11.346;2023-06-01T06:43:12;8.57;;;6.47;;
11427;SDS011;5770;44.504;11.346;2023-06-01T06:45:41;12.30;;;7.00;;
11427;SDS011;5770;44.504;11.346;2023-06-01T06:48:08;10.07;;;6.47;;
11427;SDS011;5770;44.504;11.346;2023-06-01T06:50:35;11.23;;;6.95;;
11427;SDS011;5770;44.504;11.346;2023-06-01T06:53:02;9.35;;;6.43;;
11427;SDS011;5770;44.504;11.346;2023-06-01T06:55:31;10.68;;;6.88;;
11427;SDS011;5770;44.504;11.346;2023-06-01T06:57:58;9.70;;;6.82;;
11427;SDS011;5770;44.504;11.346;2023-06-01T07:00:26;8.68;;;6.93;;
11427;SDS011;5770;44.504;11.346;2023-06-01T07:02:53;13.50;;;6.57;;
11427;SDS011;5770;44.504;11.346;2023-06-01T07:05:20;10.52;;;6.97;;
11427;SDS011;5770;44.504;11.346;2023-06-01T07:07:47;10.10;;;7.53;;
11427;SDS011;5770;44.504;11.346;2023-06-01T07:10:14;11.07;;;7.45;;
11427;SDS011;5770;44.504;11.346;2023-06-01T07:12:43;9.23;;;7.50;;
11427;SDS011;5770;44.504;11.346;2023-06-01T07:15:10;8.80;;;7.20;;
11427;SDS011;5770;44.504;11.346;2023-06-01T07:17:37;25.63;;;8.25;;
11427;SDS011;5770;44.504;11.346;2023-06-01T07:20:06;18.20;;;8.10;;
11427;SDS011;5770;44.504;11.346;2023-06-01T07:22:36;10.88;;;8.32;;
11427;SDS011;5770;44.504;11.346;2023-06-01T07:25:03;15.57;;;7.63;;
11427;SDS011;5770;44.504;11.346;2023-06-01T07:27:31;10.45;;;7.75;;
11427;SDS011;5770;44.504;11.346;2023-06-01T07:30:01;28.65;;;8.20;;
11427;SDS011;5770;44.504;11.346;2023-06-01T07:32:28;14.20;;;7.95;;
11427;SDS011;5770;44.504;11.346;2023-06-01T07:34:55;10.73;;;8.07;;
11427;SDS011;5770;44.504;11.346;2023-06-01T07:37:24;9.20;;;7.20;;
11427;SDS011;5770;44.504;11.346;2023-06-01T07:39:52;11.25;;;6.78;;
11427;SDS011;5770;44.504;11.346;2023-06-01T07:42:19;11.30;;;8.05;;
11427;SDS011;5770;44.504;11.346;2023-06-01T07:44:47;11.50;;;7.38;;
11427;SDS011;5770;44.504;11.346;2023-06-01T07:47:15;8.43;;;6.88;;
11427;SDS011;5770;44.504;11.346;2023-06-01T07:49:42;9.60;;;6.50;;
11427;SDS011;5770;44.504;11.346;2023-06-01T07:52:10;9.30;;;6.78;;
11427;SDS011;5770;44.504;11.346;2023-06-01T07:54:38;10.85;;;6.70;;
11427;SDS011;5770;44.504;11.346;2023-06-01T07:57:05;12.25;;;7.13;;
11427;SDS011;5770;44.504;11.346;2023-06-01T07:59:33;24.45;;;8.15;;
11427;SDS011;5770;44.504;11.346;2023-06-01T08:02:00;12.63;;;7.40;;
11427;SDS011;5770;44.504;11.346;2023-06-01T08:04:29;14.23;;;7.43;;
11427;SDS011;5770;44.504;11.346;2023-06-01T08:06:58;11.77;;;6.53;;
11427;SDS011;5770;44.504;11.346;2023-06-01T08:09:28;11.15;;;7.25;;
11427;SDS011;5770;44.504;11.346;2023-06-01T08:11:56;13.73;;;7.80;;
11427;SDS011;5770;44.504;11.346;2023-06-01T08:14:23;15.70;;;7.80;;
11427;SDS011;5770;44.504;11.346;2023-06-01T08:16:50;8.75;;;7.43;;
11427;SDS011;5770;44.504;11.346;2023-06-01T08:19:18;11.05;;;7.15;;
11427;SDS011;5770;44.504;11.346;2023-06-01T08:21:46;17.17;;;7.10;;
11427;SDS011;5770;44.504;11.346;2023-06-01T08:24:13;30.02;;;10.32;;
11427;SDS011;5770;44.504;11.346;2023-06-01T08:26:42;12.77;;;7.22;;
11427;SDS011;5770;44.504;11.346;2023-06-01T08:29:09;9.98;;;7.15;;
11427;SDS011;5770;44.504;11.346;2023-06-01T08:31:36;10.13;;;7.20;;
11427;SDS011;5770;44.504;11.346;2023-06-01T08:34:04;8.82;;;7.28;;
11427;SDS011;5770;44.504;11.346;2023-06-01T08:36:31;9.45;;;7.70;;
11427;SDS011;5770;44.504;11.346;2023-06-01T08:39:00;11.23;;;7.55;;
11427;SDS011;5770;44.504;11.346;2023-06-01T08:41:48;13.25;;;8.50;;
11427;SDS011;5770;44.504;11.346;2023-06-01T08:44:19;11.98;;;7.28;;
11427;SDS011;5770;44.504;11.346;2023-06-01T08:46:52;10.45;;;6.57;;
11427;SDS011;5770;44.504;11.346;2023-06-01T08:49:21;14.13;;;7.53;;
11427;SDS011;5770;44.504;11.346;2023-06-01T08:51:51;20.08;;;8.13;;
11427;SDS011;5770;44.504;11.346;2023-06-01T08:54:21;18.45;;;8.27;;
11427;SDS011;5770;44.504;11.346;2023-06-01T08:56:48;10.70;;;6.93;;
11427;SDS011;5770;44.504;11.346;2023-06-01T08:59:16;12.60;;;7.70;;
11427;SDS011;5770;44.504;11.346;2023-06-01T09:01:43;8.27;;;6.50;;
11427;SDS011;5770;44.504;11.346;2023-06-01T09:04:11;13.40;;;7.20;;
11427;SDS011;5770;44.504;11.346;2023-06-01T09:06:38;10.68;;;6.97;;
11427;SDS011;5770;44.504;11.346;2023-06-01T09:09:08;7.00;;;6.13;;
11427;SDS011;5770;44.504;11.346;2023-06-01T09:11:38;7.53;;;6.75;;
11427;SDS011;5770;44.504;11.346;2023-06-01T09:14:21;11.15;;;6.75;;
11427;SDS011;5770;44.504;11.346;2023-06-01T09:16:49;10.40;;;6.45;;
11427;SDS011;5770;44.504;11.346;2023-06-01T09:19:16;12.80;;;7.22;;
11427;SDS011;5770;44.504;11.346;2023-06-01T09:21:58;9.25;;;7.78;;
11427;SDS011;5770;44.504;11.346;2023-06-01T09:24:25;16.27;;;8.30;;
11427;SDS011;5770;44.504;11.346;2023-06-01T09:26:59;10.00;;;8.10;;
11427;SDS011;5770;44.504;11.346;2023-06-01T09:29:26;9.57;;;7.75;;
11427;SDS011;5770;44.504;11.346;2023-06-01T09:31:54;18.67;;;7.28;;
11427;SDS011;5770;44.504;11.346;2023-06-01T09:34:21;16.85;;;7.50;;
11427;SDS011;5770;44.504;11.346;2023-06-01T09:36:49;13.32;;;7.80;;
11427;SDS011;5770;44.504;11.346;2023-06-01T09:39:18;12.35;;;7.72;;
11427;SDS011;5770;44.504;11.346;2023-06-01T09:41:49;10.00;;;7.43;;
11427;SDS011;5770;44.504;11.346;2023-06-01T09:44:28;10.43;;;6.78;;
11427;SDS011;5770;44.504;11.346;2023-06-01T09:46:57;16.38;;;7.60;;
11427;SDS011;5770;44.504;11.346;2023-06-01T09:49:27;11.25;;;6.82;;
11427;SDS011;5770;44.504;11.346;2023-06-01T09:52:07;16.50;;;6.95;;
11427;SDS011;5770;44.504;11.346;2023-06-01T09:54:38;15.68;;;7.30;;
11427;SDS011;5770;44.504;11.346;2023-06-01T09:57:06;8.77;;;6.68;;
11427;SDS011;5770;44.504;11.346;2023-06-01T09:59:38;9.45;;;6.60;;
11427;SDS011;5770;44.504;11.346;2023-06-01T10:02:06;10.18;;;6.93;;
11427;SDS011;5770;44.504;11.346;2023-06-01T10:04:34;8.52;;;6.78;;
11427;SDS011;5770;44.504;11.346;2023-06-01T10:07:05;11.82;;;6.63;;
11427;SDS011;5770;44.504;11.346;2023-06-01T10:09:36;9.02;;;6.60;;
11427;SDS011;5770;44.504;11.346;2023-06-01T10:12:05;9.05;;;6.63;;
11427;SDS011;5770;44.504;11.346;2023-06-01T10:14:33;11.23;;;6.43;;
11427;SDS011;5770;44.504;11.346;2023-06-01T10:17:01;7.85;;;7.05;;
11427;SDS011;5770;44.504;11.346;2023-06-01T10:19:29;10.48;;;6.45;;
11427;SDS011;5770;44.504;11.346;2023-06-01T10:21:57;15.43;;;8.98;;
11427;SDS011;5770;44.504;11.346;2023-06-01T10:24:25;10.15;;;6.97;;
11427;SDS011;5770;44.504;11.346;2023-06-01T10:26:56;9.82;;;6.10;;
11427;SDS011;5770;44.504;11.346;2023-06-01T10:29:30;10.48;;;5.90;;
11427;SDS011;5770;44.504;11.346;2023-06-01T10:31:58;7.43;;;6.18;;
11427;SDS011;5770;44.504;11.346;2023-06-01T10:34:39;7.50;;;6.03;;
11427;SDS011;5770;44.504;11.346;2023-06-01T10:37:16;9.00;;;6.13;;
11427;SDS011;5770;44.504;11.346;2023-06-01T10:39:43;9.80;;;5.63;;
11427;SDS011;5770;44.504;11.346;2023-06-01T10:44:57;9.15;;;6.22;;
11427;SDS011;5770;44.504;11.346;2023-06-01T10:50:15;6.88;;;5.75;;
11427;SDS011;5770;44.504;11.346;2023-06-01T10:52:42;6.85;;;5.60;;
11427;SDS011;5770;44.504;11.346;2023-06-01T11:00:49;6.68;;;6.07;;
11427;SDS011;5770;44.504;11.346;2023-06-01T11:03:17;8.75;;;5.80;;
11427;SDS011;5770;44.504;11.346;2023-06-01T11:06:07;11.60;;;5.82;;
11427;SDS011;5770;44.504;11.346;2023-06-01T11:08:51;6.75;;;5.85;;
11427;SDS011;5770;44.504;11.346;2023-06-01T11:11:22;7.32;;;6.05;;
11427;SDS011;5770;44.504;11.346;2023-06-01T11:14:06;7.10;;;5.85;;
11427;SDS011;5770;44.504;11.346;2023-06-01T11:16:36;6.07;;;5.47;;
11427;SDS011;5770;44.504;11.346;2023-06-01T11:19:03;11.30;;;6.15;;
11427;SDS011;5770;44.504;11.346;2023-06-01T11:21:33;7.60;;;5.35;;
11427;SDS011;5770;44.504;11.346;2023-06-01T11:24:06;7.88;;;6.10;;
11427;SDS011;5770;44.504;11.346;2023-06-01T11:26:35;7.18;;;5.90;;
11427;SDS011;5770;44.504;11.346;2023-06-01T11:29:04;6.38;;;5.55;;
11427;SDS011;5770;44.504;11.346;2023-06-01T11:31:34;8.07;;;5.22;;
11427;SDS011;5770;44.504;11.346;2023-06-01T11:34:02;8.75;;;6.22;;
11427;SDS011;5770;44.504;11.346;2023-06-01T11:36:30;6.28;;;4.53;;
11427;SDS011;5770;44.504;11.346;2023-06-01T11:39:03;7.82;;;4.68;;
11427;SDS011;5770;44.504;11.346;2023-06-01T11:41:33;8.02;;;5.68;;
11427;SDS011;5770;44.504;11.346;2023-06-01T11:44:02;8.88;;;5.20;;
11427;SDS011;5770;44.504;11.346;2023-06-01T11:46:29;6.22;;;5.63;;
11427;SDS011;5770;44.504;11.346;2023-06-01T11:49:00;9.00;;;5.65;;
11427;SDS011;5770;44.504;11.346;2023-06-01T11:51:29;10.20;;;5.97;;
11427;SDS011;5770;44.504;11.346;2023-06-01T11:53:58;6.90;;;6.00;;
11427;SDS011;5770;44.504;11.346;2023-06-01T11:56:30;7.65;;;5.60;;
11427;SDS011;5770;44.504;11.346;2023-06-01T11:58:58;10.68;;;5.63;;
11427;SDS011;5770;44.504;11.346;2023-06-01T12:01:26;5.82;;;5.00;;
11427;SDS011;5770;44.504;11.346;2023-06-01T12:03:54;6.88;;;5.65;;
11427;SDS011;5770;44.504;11.346;2023-06-01T12:06:24;7.50;;;4.97;;
11427;SDS011;5770;44.504;11.346;2023-06-01T12:08:52;6.68;;;5.03;;
11427;SDS011;5770;44.504;11.346;2023-06-01T12:11:22;9.52;;;5.35;;
11427;SDS011;5770;44.504;11.346;2023-06-01T12:13:52;10.68;;;5.80;;
11427;SDS011;5770;44.504;11.346;2023-06-01T12:16:20;9.90;;;5.35;;
11427;SDS011;5770;44.504;11.346;2023-06-01T12:18:47;5.38;;;4.88;;
11427;SDS011;5770;44.504;11.346;2023-06-01T12:21:15;8.10;;;5.20;;
11427;SDS011;5770;44.504;11.346;2023-06-01T12:23:42;9.23;;;5.53;;
11427;SDS011;5770;44.504;11.346;2023-06-01T12:26:10;8.52;;;5.30;;
11427;SDS011;5770;44.504;11.346;2023-06-01T12:28:49;12.07;;;5.38;;
11427;SDS011;5770;44.504;11.346;2023-06-01T12:31:18;8.50;;;5.47;;
11427;SDS011;5770;44.504;11.346;2023-06-01T12:33:46;5.78;;;5.10;;
11427;SDS011;5770;44.504;11.346;2023-06-01T12:36:29;5.88;;;5.20;;
11427;SDS011;5770;44.504;11.346;2023-06-01T12:38:57;5.32;;;4.80;;
11427;SDS011;5770;44.504;11.346;2023-06-01T12:41:25;8.88;;;5.43;;
11427;SDS011;5770;44.504;11.346;2023-06-01T12:43:55;9.18;;;5.40;;
11427;SDS011;5770;44.504;11.346;2023-06-01T12:46:23;7.13;;;5.82;;
11427;SDS011;5770;44.504;11.346;2023-06-01T12:48:52;8.35;;;5.30;;
11427;SDS011;5770;44.504;11.346;2023-06-01T12:51:20;7.85;;;4.75;;
11427;SDS011;5770;44.504;11.346;2023-06-01T12:53:47;10.27;;;5.65;;
11427;SDS011;5770;44.504;11.346;2023-06-01T12:56:14;9.75;;;5.13;;
11427;SDS011;5770;44.504;11.346;2023-06-01T12:58:42;5.55;;;5.05;;
11427;SDS011;5770;44.504;11.346;2023-06-01T13:01:10;9.52;;;4.93;;
11427;SDS011;5770;44.504;11.346;2023-06-01T13:03:37;8.45;;;6.85;;
11427;SDS011;5770;44.504;11.346;2023-06-01T13:06:04;7.10;;;5.47;;
11427;SDS011;5770;44.504;11.346;2023-06-01T13:08:32;7.80;;;5.60;;
11427;SDS011;5770;44.504;11.346;2023-06-01T13:10:59;6.28;;;5.68;;
11427;SDS011;5770;44.504;11.346;2023-06-01T13:13:26;6.00;;;5.38;;
11427;SDS011;5770;44.504;11.346;2023-06-01T13:15:53;7.97;;;5.55;;
11427;SDS011;5770;44.504;11.346;2023-06-01T13:18:22;8.93;;;6.57;;
11427;SDS011;5770;44.504;11.346;2023-06-01T13:20:49;8.30;;;5.22;;
11427;SDS011;5770;44.504;11.346;2023-06-01T13:23:17;6.70;;;5.35;;
11427;SDS011;5770;44.504;11.346;2023-06-01T13:25:44;6.60;;;5.07;;
11427;SDS011;5770;44.504;11.346;2023-06-01T13:28:11;6.10;;;5.50;;
11427;SDS011;5770;44.504;11.346;2023-06-01T13:30:39;7.40;;;5.30;;
11427;SDS011;5770;44.504;11.346;2023-06-01T13:33:06;10.95;;;5.25;;
11427;SDS011;5770;44.504;11.346;2023-06-01T13:35:34;8.70;;;5.68;;
11427;SDS011;5770;44.504;11.346;2023-06-01T13:38:02;7.63;;;5.43;;
11427;SDS011;5770;44.504;11.346;2023-06-01T13:40:29;7.60;;;5.28;;
11427;SDS011;5770;44.504;11.346;2023-06-01T13:42:58;6.20;;;5.00;;
11427;SDS011;5770;44.504;11.346;2023-06-01T13:45:25;6.72;;;5.15;;
11427;SDS011;5770;44.504;11.346;2023-06-01T13:47:53;5.90;;;5.40;;
11427;SDS011;5770;44.504;11.346;2023-06-01T13:50:21;6.32;;;5.10;;
11427;SDS011;5770;44.504;11.346;2023-06-01T13:52:49;7.10;;;5.90;;
11427;SDS011;5770;44.504;11.346;2023-06-01T13:55:17;8.15;;;5.75;;
11427;SDS011;5770;44.504;11.346;2023-06-01T13:57:44;10.90;;;5.50;;
11427;SDS011;5770;44.504;11.346;2023-06-01T14:00:13;7.28;;;5.40;;
11427;SDS011;5770;44.504;11.346;2023-06-01T14:02:42;9.38;;;5.65;;
11427;SDS011;5770;44.504;11.346;2023-06-01T14:05:09;7.20;;;5.25;;
11427;SDS011;5770;44.504;11.346;2023-06-01T14:07:37;7.40;;;5.55;;
11427;SDS011;5770;44.504;11.346;2023-06-01T14:10:06;7.65;;;5.45;;
11427;SDS011;5770;44.504;11.346;2023-06-01T14:12:34;8.70;;;5.57;;
11427;SDS011;5770;44.504;11.346;2023-06-01T14:15:01;7.22;;;5.35;;
11427;SDS011;5770;44.504;11.346;2023-06-01T14:17:28;7.13;;;5.47;;
11427;SDS011;5770;44.504;11.346;2023-06-01T14:19:56;6.28;;;5.60;;
11427;SDS011;5770;44.504;11.346;2023-06-01T14:22:23;6.05;;;5.45;;
11427;SDS011;5770;44.504;11.346;2023-06-01T14:24:50;8.63;;;5.25;;
11427;SDS011;5770;44.504;11.346;2023-06-01T14:27:19;8.30;;;5.20;;
11427;SDS011;5770;44.504;11.346;2023-06-01T14:29:46;5.68;;;5.05;;
11427;SDS011;5770;44.504;11.346;2023-06-01T14:32:14;6.60;;;4.78;;
11427;SDS011;5770;44.504;11.346;2023-06-01T14:34:41;11.70;;;5.13;;
11427;SDS011;5770;44.504;11.346;2023-06-01T14:37:08;5.80;;;4.53;;
11427;SDS011;5770;44.504;11.346;2023-06-01T14:39:36;7.10;;;5.18;;
11427;SDS011;5770;44.504;11.346;2023-06-01T14:42:04;5.43;;;4.80;;
11427;SDS011;5770;44.504;11.346;2023-06-01T14:44:33;8.07;;;4.97;;
11427;SDS011;5770;44.504;11.346;2023-06-01T14:47:00;6.78;;;4.75;;
11427;SDS011;5770;44.504;11.346;2023-06-01T14:49:28;6.72;;;5.32;;
11427;SDS011;5770;44.504;11.346;2023-06-01T14:52:01;7.90;;;5.05;;
11427;SDS011;5770;44.504;11.346;2023-06-01T14:54:36;6.72;;;4.97;;
11427;SDS011;5770;44.504;11.346;2023-06-01T14:57:03;5.75;;;5.05;;
11427;SDS011;5770;44.504;11.346;2023-06-01T14:59:33;5.47;;;4.88;;
11427;SDS011;5770;44.504;11.346;2023-06-01T15:02:01;7.15;;;5.03;;
11427;SDS011;5770;44.504;11.346;2023-06-01T15:04:29;8.10;;;4.95;;
11427;SDS011;5770;44.504;11.346;2023-06-01T15:06:56;5.28;;;4.78;;